PWSweather.com
Personal Weather Stations
Station Observations
SHAHALMS1
Eftra, Falkenberg, HA

EftraFalkenberg, HA

Lat: 56.85, Lon: 12.65

Elevation: 140

Station Type:

http://hem.passagen.se/risarp101

High Low Average
Temperature 63.7°F17.6°C 55.8°F13.2°C 59.8°F15.4°C
Dew Point 59.0°F15.0°C 52.7°F11.5°C 56.1°F13.4°C
Winds 9.9 mph 15.9 kmh Calm Calm 5.0 mph E8.0 kmh E
Wind Gusts 14.0 mph22.5 kmh -- 8.0 mph12.9 kmh
Humidity 93% 76% 88%
Pressure 29.80 in1009.1 mb 29.68 in1005.1 mb -
Precipitation 0.10 in2.5 mm - -
Hour Temp Dew Point Humidity Winds Wind Gusts Pressure Precip Precip Rate Daily Precip Total
12:00 AM 57.0°F13.9°C 53.2°F11.8°C 87% Calm Calm -- 29.80 in1009.1 mb 0.00 in0.0 mm 0.00 in0.0 mm 0.00 in0.0 mm
12:15 AM 56.8°F13.8°C 53.0°F11.7°C 87% Calm Calm -- 29.80 in1009.1 mb 0.00 in0.0 mm 0.00 in0.0 mm 0.00 in0.0 mm
12:30 AM 56.8°F13.8°C 53.3°F11.8°C 88% 1.5 mph SE2.4 kmh SE 5.7 mph9.2 kmh 29.80 in1009.1 mb 0.00 in0.0 mm 0.00 in0.0 mm 0.00 in0.0 mm
12:45 AM 56.7°F13.7°C 53.1°F11.7°C 88% 0.7 mph ESE1.1 kmh ESE 4.7 mph7.6 kmh 29.80 in1009.1 mb 0.00 in0.0 mm 0.00 in0.0 mm 0.00 in0.0 mm
01:00 AM 56.7°F13.7°C 53.1°F11.7°C 88% 0.5 mph ESE0.8 kmh ESE 3.6 mph5.8 kmh 29.80 in1009.1 mb 0.00 in0.0 mm 0.00 in0.0 mm 0.00 in0.0 mm
01:15 AM 56.7°F13.7°C 53.1°F11.7°C 88% 1.6 mph E2.6 kmh E 6.1 mph9.8 kmh 29.80 in1009.1 mb 0.00 in0.0 mm 0.00 in0.0 mm 0.00 in0.0 mm
01:30 AM 56.5°F13.6°C 53.3°F11.8°C 89% 3.8 mph ESE6.1 kmh ESE 7.2 mph11.6 kmh 29.77 in1008.1 mb 0.00 in0.0 mm 0.00 in0.0 mm 0.00 in0.0 mm
01:45 AM 56.3°F13.5°C 52.8°F11.6°C 88% 6.6 mph SE10.6 kmh SE 9.3 mph15.0 kmh 29.80 in1009.1 mb 0.00 in0.0 mm 0.00 in0.0 mm 0.00 in0.0 mm
02:00 AM 56.3°F13.5°C 53.1°F11.7°C 89% 5.8 mph ESE9.3 kmh ESE 10.0 mph16.1 kmh 29.77 in1008.1 mb 0.00 in0.0 mm 0.00 in0.0 mm 0.00 in0.0 mm
02:15 AM 56.1°F13.4°C 52.9°F11.6°C 89% 5.0 mph E8.0 kmh E 10.4 mph16.7 kmh 29.80 in1009.1 mb 0.00 in0.0 mm 0.00 in0.0 mm 0.00 in0.0 mm
02:30 AM 55.9°F13.3°C 52.7°F11.5°C 89% 1.1 mph E1.8 kmh E 7.5 mph12.1 kmh 29.77 in1008.1 mb 0.00 in0.0 mm 0.00 in0.0 mm 0.00 in0.0 mm
02:45 AM 55.9°F13.3°C 52.7°F11.5°C 89% 4.0 mph ESE6.4 kmh ESE 8.6 mph13.8 kmh 29.77 in1008.1 mb 0.00 in0.0 mm 0.00 in0.0 mm 0.00 in0.0 mm
03:00 AM 56.1°F13.4°C 53.2°F11.8°C 90% 1.7 mph E2.7 kmh E 7.5 mph12.1 kmh 29.77 in1008.1 mb 0.00 in0.0 mm 0.00 in0.0 mm 0.00 in0.0 mm
03:15 AM 55.9°F13.3°C 53.0°F11.7°C 90% 3.8 mph ESE6.1 kmh ESE 7.9 mph12.7 kmh 29.77 in1008.1 mb 0.00 in0.0 mm 0.00 in0.0 mm 0.00 in0.0 mm
03:30 AM 55.9°F13.3°C 53.0°F11.7°C 90% 2.3 mph ESE3.7 kmh ESE 8.6 mph13.8 kmh 29.74 in1007.1 mb 0.00 in0.0 mm 0.00 in0.0 mm 0.00 in0.0 mm
03:45 AM 55.9°F13.3°C 53.0°F11.7°C 90% 1.2 mph E1.9 kmh E 6.4 mph10.3 kmh 29.74 in1007.1 mb 0.00 in0.0 mm 0.00 in0.0 mm 0.00 in0.0 mm
04:00 AM 55.8°F13.2°C 52.9°F11.6°C 90% 1.8 mph E2.9 kmh E 6.4 mph10.3 kmh 29.74 in1007.1 mb 0.00 in0.0 mm 0.00 in0.0 mm 0.00 in0.0 mm
04:15 AM 55.8°F13.2°C 52.9°F11.6°C 90% 0.3 mph E0.5 kmh E 3.6 mph5.8 kmh 29.74 in1007.1 mb 0.00 in0.0 mm 0.00 in0.0 mm 0.00 in0.0 mm
04:30 AM 55.8°F13.2°C 52.9°F11.6°C 90% 0.1 mph E0.2 kmh E 1.8 mph2.9 kmh 29.74 in1007.1 mb 0.00 in0.0 mm 0.00 in0.0 mm 0.00 in0.0 mm
04:45 AM 55.8°F13.2°C 52.9°F11.6°C 90% Calm Calm -- 29.71 in1006.1 mb 0.00 in0.0 mm 0.00 in0.0 mm 0.00 in0.0 mm
05:00 AM 56.1°F13.4°C 53.2°F11.8°C 90% 0.6 mph E1.0 kmh E 2.5 mph4.0 kmh 29.74 in1007.1 mb 0.00 in0.0 mm 0.00 in0.0 mm 0.00 in0.0 mm
05:15 AM 56.1°F13.4°C 53.2°F11.8°C 90% 0.4 mph E0.6 kmh E 5.4 mph8.7 kmh 29.74 in1007.1 mb 0.00 in0.0 mm 0.00 in0.0 mm 0.00 in0.0 mm
05:30 AM 56.3°F13.5°C 53.4°F11.9°C 90% 0.4 mph E0.6 kmh E 3.6 mph5.8 kmh 29.74 in1007.1 mb 0.00 in0.0 mm 0.00 in0.0 mm 0.00 in0.0 mm
05:45 AM 56.5°F13.6°C 53.6°F12.0°C 90% 0.7 mph E1.1 kmh E 3.9 mph6.3 kmh 29.74 in1007.1 mb 0.00 in0.0 mm 0.00 in0.0 mm 0.00 in0.0 mm
06:00 AM 56.7°F13.7°C 53.8°F12.1°C 90% Calm Calm -- 29.74 in1007.1 mb 0.00 in0.0 mm 0.00 in0.0 mm 0.00 in0.0 mm
06:15 AM 56.8°F13.8°C 53.9°F12.2°C 90% Calm Calm -- 29.74 in1007.1 mb 0.00 in0.0 mm 0.00 in0.0 mm 0.00 in0.0 mm
06:30 AM 57.4°F14.1°C 54.5°F12.5°C 90% Calm Calm -- 29.74 in1007.1 mb 0.00 in0.0 mm 0.00 in0.0 mm 0.00 in0.0 mm
06:45 AM 57.7°F14.3°C 54.8°F12.7°C 90% Calm Calm -- 29.74 in1007.1 mb 0.00 in0.0 mm 0.00 in0.0 mm 0.00 in0.0 mm
07:00 AM 58.1°F14.5°C 54.9°F12.7°C 89% Calm Calm -- 29.74 in1007.1 mb 0.00 in0.0 mm 0.00 in0.0 mm 0.00 in0.0 mm
07:15 AM 58.3°F14.6°C 55.1°F12.8°C 89% Calm Calm -- 29.74 in1007.1 mb 0.00 in0.0 mm 0.00 in0.0 mm 0.00 in0.0 mm
07:30 AM 58.6°F14.8°C 55.4°F13.0°C 89% Calm Calm -- 29.74 in1007.1 mb 0.00 in0.0 mm 0.00 in0.0 mm 0.00 in0.0 mm
07:45 AM 59.0°F15.0°C 55.4°F13.0°C 88% Calm Calm -- 29.74 in1007.1 mb 0.00 in0.0 mm 0.00 in0.0 mm 0.00 in0.0 mm
08:00 AM 59.7°F15.4°C 56.2°F13.4°C 88% 5.5 mph ESE8.9 kmh ESE 6.8 mph10.9 kmh 29.74 in1007.1 mb 0.00 in0.0 mm 0.00 in0.0 mm 0.00 in0.0 mm
08:15 AM 60.6°F15.9°C 57.0°F13.9°C 88% 6.5 mph E10.5 kmh E 10.4 mph16.7 kmh 29.71 in1006.1 mb 0.00 in0.0 mm 0.00 in0.0 mm 0.00 in0.0 mm
08:30 AM 60.8°F16.0°C 56.3°F13.5°C 85% 6.9 mph E11.1 kmh E 14.0 mph22.5 kmh 29.74 in1007.1 mb 0.00 in0.0 mm 0.00 in0.0 mm 0.00 in0.0 mm
08:45 AM 61.0°F16.1°C 56.1°F13.4°C 84% 6.1 mph E9.8 kmh E 7.5 mph12.1 kmh 29.74 in1007.1 mb 0.00 in0.0 mm 0.00 in0.0 mm 0.00 in0.0 mm
09:00 AM 61.5°F16.4°C 56.3°F13.5°C 83% 6.1 mph E9.8 kmh E 7.5 mph12.1 kmh 29.74 in1007.1 mb 0.00 in0.0 mm 0.00 in0.0 mm 0.00 in0.0 mm
09:15 AM 62.2°F16.8°C 57.0°F13.9°C 83% 6.1 mph E9.8 kmh E 7.5 mph12.1 kmh 29.74 in1007.1 mb 0.00 in0.0 mm 0.00 in0.0 mm 0.00 in0.0 mm
09:30 AM 62.6°F17.0°C 56.3°F13.5°C 80% 6.1 mph E9.8 kmh E 7.5 mph12.1 kmh 29.74 in1007.1 mb 0.00 in0.0 mm 0.00 in0.0 mm 0.00 in0.0 mm
09:45 AM 62.8°F17.1°C 56.2°F13.4°C 79% 7.6 mph SE12.2 kmh SE 9.3 mph15.0 kmh 29.74 in1007.1 mb 0.00 in0.0 mm 0.00 in0.0 mm 0.00 in0.0 mm
10:00 AM 63.0°F17.2°C 56.3°F13.5°C 79% 9.9 mph E15.9 kmh E 12.2 mph19.6 kmh 29.74 in1007.1 mb 0.00 in0.0 mm 0.00 in0.0 mm 0.00 in0.0 mm
10:15 AM 63.5°F17.5°C 56.5°F13.6°C 78% 7.6 mph E12.2 kmh E 9.3 mph15.0 kmh 29.74 in1007.1 mb 0.00 in0.0 mm 0.00 in0.0 mm 0.00 in0.0 mm
10:30 AM 63.5°F17.5°C 56.2°F13.4°C 77% 7.6 mph E12.2 kmh E 9.3 mph15.0 kmh 29.74 in1007.1 mb 0.00 in0.0 mm 0.00 in0.0 mm 0.00 in0.0 mm
10:45 AM 63.7°F17.6°C 56.0°F13.3°C 76% 7.6 mph E12.2 kmh E 9.3 mph15.0 kmh 29.74 in1007.1 mb 0.00 in0.0 mm 0.00 in0.0 mm 0.00 in0.0 mm
11:00 AM 63.0°F17.2°C 55.6°F13.1°C 77% 7.6 mph E12.2 kmh E 9.3 mph15.0 kmh 29.74 in1007.1 mb 0.00 in0.0 mm 0.00 in0.0 mm 0.00 in0.0 mm
11:15 AM 62.8°F17.1°C 55.8°F13.2°C 78% 7.6 mph E12.2 kmh E 9.3 mph15.0 kmh 29.74 in1007.1 mb 0.00 in0.0 mm 0.00 in0.0 mm 0.00 in0.0 mm
11:30 AM 62.8°F17.1°C 56.2°F13.4°C 79% 7.6 mph E12.2 kmh E 9.3 mph15.0 kmh 29.74 in1007.1 mb 0.00 in0.0 mm 0.00 in0.0 mm 0.00 in0.0 mm
11:45 AM 62.6°F17.0°C 56.3°F13.5°C 80% 7.6 mph E12.2 kmh E 9.3 mph15.0 kmh 29.71 in1006.1 mb 0.00 in0.0 mm 0.00 in0.0 mm 0.00 in0.0 mm
12:00 PM 62.2°F16.8°C 56.3°F13.5°C 81% 7.6 mph E12.2 kmh E 9.3 mph15.0 kmh 29.74 in1007.1 mb 0.00 in0.0 mm 0.00 in0.0 mm 0.00 in0.0 mm
12:15 PM 61.7°F16.5°C 56.1°F13.4°C 82% 7.6 mph E12.2 kmh E 9.3 mph15.0 kmh 29.74 in1007.1 mb 0.00 in0.0 mm 0.00 in0.0 mm 0.00 in0.0 mm
12:30 PM 61.2°F16.2°C 56.0°F13.3°C 83% 7.6 mph E12.2 kmh E 9.3 mph15.0 kmh 29.74 in1007.1 mb 0.00 in0.0 mm 0.00 in0.0 mm 0.00 in0.0 mm
12:45 PM 61.3°F16.3°C 56.5°F13.6°C 84% 7.6 mph E12.2 kmh E 9.3 mph15.0 kmh 29.74 in1007.1 mb 0.00 in0.0 mm 0.00 in0.0 mm 0.00 in0.0 mm
01:00 PM 61.5°F16.4°C 57.0°F13.9°C 85% 7.6 mph E12.2 kmh E 9.3 mph15.0 kmh 29.74 in1007.1 mb 0.06 in1.5 mm 0.08 in2.0 mm 0.06 in1.5 mm
01:15 PM 61.2°F16.2°C 56.6°F13.7°C 85% 7.6 mph E12.2 kmh E 9.3 mph15.0 kmh 29.71 in1006.1 mb 0.06 in1.5 mm 0.00 in0.0 mm 0.06 in1.5 mm
01:30 PM 61.2°F16.2°C 56.9°F13.8°C 86% 7.6 mph E12.2 kmh E 9.3 mph15.0 kmh 29.74 in1007.1 mb 0.06 in1.5 mm 0.00 in0.0 mm 0.06 in1.5 mm
01:45 PM 61.2°F16.2°C 57.3°F14.1°C 87% 7.6 mph E12.2 kmh E 9.3 mph15.0 kmh 29.74 in1007.1 mb 0.06 in1.5 mm 0.00 in0.0 mm 0.06 in1.5 mm
02:00 PM 61.3°F16.3°C 57.4°F14.1°C 87% 7.6 mph E12.2 kmh E 9.3 mph15.0 kmh 29.74 in1007.1 mb 0.00 in0.0 mm 0.00 in0.0 mm 0.06 in1.5 mm
02:15 PM 61.7°F16.5°C 57.8°F14.3°C 87% 7.6 mph E12.2 kmh E 9.3 mph15.0 kmh 29.74 in1007.1 mb 0.00 in0.0 mm 0.00 in0.0 mm 0.06 in1.5 mm
02:30 PM 61.7°F16.5°C 58.1°F14.5°C 88% 5.5 mph E8.9 kmh E 6.8 mph10.9 kmh 29.77 in1008.1 mb 0.00 in0.0 mm 0.00 in0.0 mm 0.06 in1.5 mm
02:45 PM 61.5°F16.4°C 57.6°F14.2°C 87% 5.5 mph E8.9 kmh E 6.8 mph10.9 kmh 29.74 in1007.1 mb 0.00 in0.0 mm 0.00 in0.0 mm 0.06 in1.5 mm
03:00 PM 62.1°F16.7°C 58.5°F14.7°C 88% 5.5 mph E8.9 kmh E 6.8 mph10.9 kmh 29.74 in1007.1 mb 0.00 in0.0 mm 0.00 in0.0 mm 0.06 in1.5 mm
03:15 PM 62.2°F16.8°C 58.6°F14.8°C 88% 5.5 mph E8.9 kmh E 6.8 mph10.9 kmh 29.74 in1007.1 mb 0.00 in0.0 mm 0.00 in0.0 mm 0.06 in1.5 mm
03:30 PM 62.2°F16.8°C 58.6°F14.8°C 88% 5.4 mph E8.7 kmh E 10.4 mph16.7 kmh 29.74 in1007.1 mb 0.00 in0.0 mm 0.00 in0.0 mm 0.06 in1.5 mm
03:45 PM 62.4°F16.9°C 58.8°F14.9°C 88% 7.0 mph E11.3 kmh E 10.4 mph16.7 kmh 29.74 in1007.1 mb 0.00 in0.0 mm 0.00 in0.0 mm 0.06 in1.5 mm
04:00 PM 62.6°F17.0°C 59.0°F15.0°C 88% 5.0 mph E8.0 kmh E 10.4 mph16.7 kmh 29.74 in1007.1 mb 0.00 in0.0 mm 0.00 in0.0 mm 0.06 in1.5 mm
04:15 PM 62.6°F17.0°C 58.7°F14.8°C 87% 7.8 mph E12.6 kmh E 12.2 mph19.6 kmh 29.71 in1006.1 mb 0.00 in0.0 mm 0.00 in0.0 mm 0.06 in1.5 mm
04:30 PM 62.2°F16.8°C 58.6°F14.8°C 88% 6.9 mph E11.1 kmh E 12.5 mph20.1 kmh 29.71 in1006.1 mb 0.00 in0.0 mm 0.00 in0.0 mm 0.06 in1.5 mm
04:45 PM 62.1°F16.7°C 58.5°F14.7°C 88% 4.3 mph E6.9 kmh E 8.6 mph13.8 kmh 29.71 in1006.1 mb 0.00 in0.0 mm 0.00 in0.0 mm 0.06 in1.5 mm
05:00 PM 61.9°F16.6°C 58.3°F14.6°C 88% 5.7 mph E9.2 kmh E 12.2 mph19.6 kmh 29.71 in1006.1 mb 0.00 in0.0 mm 0.00 in0.0 mm 0.06 in1.5 mm
05:15 PM 61.7°F16.5°C 58.1°F14.5°C 88% 5.2 mph E8.4 kmh E 7.9 mph12.7 kmh 29.71 in1006.1 mb 0.00 in0.0 mm 0.00 in0.0 mm 0.06 in1.5 mm
05:30 PM 61.5°F16.4°C 58.2°F14.6°C 89% 5.3 mph E8.5 kmh E 12.5 mph20.1 kmh 29.71 in1006.1 mb 0.00 in0.0 mm 0.00 in0.0 mm 0.06 in1.5 mm
05:45 PM 61.3°F16.3°C 58.1°F14.5°C 89% 7.4 mph E11.9 kmh E 10.4 mph16.7 kmh 29.71 in1006.1 mb 0.00 in0.0 mm 0.00 in0.0 mm 0.06 in1.5 mm
06:00 PM 61.3°F16.3°C 58.1°F14.5°C 89% 6.5 mph E10.5 kmh E 10.4 mph16.7 kmh 29.71 in1006.1 mb 0.00 in0.0 mm 0.00 in0.0 mm 0.06 in1.5 mm
06:15 PM 61.2°F16.2°C 57.9°F14.4°C 89% 6.4 mph E10.3 kmh E 7.9 mph12.7 kmh 29.71 in1006.1 mb 0.00 in0.0 mm 0.00 in0.0 mm 0.06 in1.5 mm
06:30 PM 61.2°F16.2°C 57.9°F14.4°C 89% 6.4 mph E10.3 kmh E 7.9 mph12.7 kmh 29.71 in1006.1 mb 0.00 in0.0 mm 0.00 in0.0 mm 0.06 in1.5 mm
06:45 PM 61.0°F16.1°C 58.0°F14.4°C 90% 6.9 mph E11.1 kmh E 10.0 mph16.1 kmh 29.68 in1005.1 mb 0.00 in0.0 mm 0.00 in0.0 mm 0.06 in1.5 mm
07:00 PM 60.8°F16.0°C 57.8°F14.3°C 90% 6.2 mph E10.0 kmh E 8.6 mph13.8 kmh 29.68 in1005.1 mb 0.00 in0.0 mm 0.00 in0.0 mm 0.06 in1.5 mm
07:15 PM 60.8°F16.0°C 57.8°F14.3°C 90% 4.3 mph E6.9 kmh E 5.4 mph8.7 kmh 29.71 in1006.1 mb 0.00 in0.0 mm 0.00 in0.0 mm 0.06 in1.5 mm
07:30 PM 60.6°F15.9°C 57.7°F14.3°C 90% 3.9 mph ESE6.3 kmh ESE 9.7 mph15.6 kmh 29.68 in1005.1 mb 0.00 in0.0 mm 0.00 in0.0 mm 0.06 in1.5 mm
07:45 PM 60.4°F15.8°C 57.5°F14.2°C 90% 7.6 mph E12.2 kmh E 9.3 mph15.0 kmh 29.68 in1005.1 mb 0.00 in0.0 mm 0.00 in0.0 mm 0.06 in1.5 mm
08:00 PM 60.4°F15.8°C 57.8°F14.3°C 91% 5.2 mph E8.4 kmh E 6.4 mph10.3 kmh 29.68 in1005.1 mb 0.00 in0.0 mm 0.00 in0.0 mm 0.06 in1.5 mm
08:15 PM 60.4°F15.8°C 57.8°F14.3°C 91% 4.1 mph SE6.6 kmh SE 10.7 mph17.2 kmh 29.71 in1006.1 mb 0.00 in0.0 mm 0.00 in0.0 mm 0.06 in1.5 mm
08:30 PM 60.4°F15.8°C 57.8°F14.3°C 91% 5.6 mph ESE9.0 kmh ESE 10.4 mph16.7 kmh 29.71 in1006.1 mb 0.00 in0.0 mm 0.00 in0.0 mm 0.06 in1.5 mm
08:45 PM 60.4°F15.8°C 57.8°F14.3°C 91% 6.8 mph SE10.9 kmh SE 11.8 mph19.0 kmh 29.71 in1006.1 mb 0.00 in0.0 mm 0.00 in0.0 mm 0.06 in1.5 mm
09:00 PM 60.4°F15.8°C 57.8°F14.3°C 91% 4.1 mph SE6.6 kmh SE 5.7 mph9.2 kmh 29.71 in1006.1 mb 0.00 in0.0 mm 0.00 in0.0 mm 0.06 in1.5 mm
09:15 PM 60.4°F15.8°C 57.8°F14.3°C 91% 7.0 mph E11.3 kmh E 11.8 mph19.0 kmh 29.68 in1005.1 mb 0.00 in0.0 mm 0.00 in0.0 mm 0.06 in1.5 mm
09:30 PM 60.4°F15.8°C 57.8°F14.3°C 91% 7.0 mph ESE11.3 kmh ESE 12.5 mph20.1 kmh 29.68 in1005.1 mb 0.00 in0.0 mm 0.00 in0.0 mm 0.06 in1.5 mm
09:45 PM 60.4°F15.8°C 58.1°F14.5°C 92% 7.3 mph SE11.7 kmh SE 14.0 mph22.5 kmh 29.68 in1005.1 mb 0.05 in1.3 mm 0.20 in5.1 mm 0.10 in2.5 mm
10:00 PM 60.4°F15.8°C 58.1°F14.5°C 92% 7.8 mph SE12.6 kmh SE 14.0 mph22.5 kmh 29.68 in1005.1 mb 0.05 in1.3 mm 0.00 in0.0 mm 0.10 in2.5 mm
10:15 PM 60.4°F15.8°C 58.1°F14.5°C 92% 4.7 mph ESE7.6 kmh ESE 9.7 mph15.6 kmh 29.68 in1005.1 mb 0.05 in1.3 mm 0.00 in0.0 mm 0.10 in2.5 mm
10:30 PM 60.4°F15.8°C 58.1°F14.5°C 92% 5.8 mph ESE9.3 kmh ESE 9.7 mph15.6 kmh 29.68 in1005.1 mb 0.05 in1.3 mm 0.00 in0.0 mm 0.10 in2.5 mm
10:45 PM 60.4°F15.8°C 58.1°F14.5°C 92% 6.6 mph ESE10.6 kmh ESE 11.8 mph19.0 kmh 29.68 in1005.1 mb 0.00 in0.0 mm 0.00 in0.0 mm 0.10 in2.5 mm
11:00 PM 60.4°F15.8°C 58.1°F14.5°C 92% 5.9 mph E9.5 kmh E 12.2 mph19.6 kmh 29.68 in1005.1 mb 0.00 in0.0 mm 0.00 in0.0 mm 0.11 in2.8 mm
11:15 PM 60.3°F15.7°C 58.2°F14.6°C 93% 6.5 mph SE10.5 kmh SE 10.7 mph17.2 kmh 29.68 in1005.1 mb 0.00 in0.0 mm 0.00 in0.0 mm 0.11 in2.8 mm
11:30 PM 60.3°F15.7°C 58.2°F14.6°C 93% 4.2 mph SE6.8 kmh SE 10.4 mph16.7 kmh 29.68 in1005.1 mb 0.00 in0.0 mm 0.00 in0.0 mm 0.11 in2.8 mm
11:45 PM 60.3°F15.7°C 58.2°F14.6°C 93% 4.0 mph SE6.4 kmh SE 8.9 mph14.3 kmh 29.68 in1005.1 mb 0.05 in1.3 mm 0.20 in5.1 mm 0.05 in1.3 mm